sensor_id;sensor_type;location;lat;lon;timestamp;P1;durP1;ratioP1;P2;durP2;ratioP2
36585;SDS011;22591;48.314;11.562;2023-02-11T00:01:08;64.33;;;38.23;;
36585;SDS011;22591;48.314;11.562;2023-02-11T00:03:35;63.27;;;36.97;;
36585;SDS011;22591;48.314;11.562;2023-02-11T00:06:03;60.70;;;36.03;;
36585;SDS011;22591;48.314;11.562;2023-02-11T00:08:30;60.63;;;36.23;;
36585;SDS011;22591;48.314;11.562;2023-02-11T00:10:56;66.93;;;40.27;;
36585;SDS011;22591;48.314;11.562;2023-02-11T00:13:22;60.47;;;37.27;;
36585;SDS011;22591;48.314;11.562;2023-02-11T00:15:49;66.57;;;39.77;;
36585;SDS011;22591;48.314;11.562;2023-02-11T00:18:15;69.37;;;40.33;;
36585;SDS011;22591;48.314;11.562;2023-02-11T00:20:40;71.87;;;42.17;;
36585;SDS011;22591;48.314;11.562;2023-02-11T00:23:07;67.73;;;39.90;;
36585;SDS011;22591;48.314;11.562;2023-02-11T00:25:33;72.57;;;42.03;;
36585;SDS011;22591;48.314;11.562;2023-02-11T00:27:58;75.93;;;39.97;;
36585;SDS011;22591;48.314;11.562;2023-02-11T00:30:24;76.10;;;40.97;;
36585;SDS011;22591;48.314;11.562;2023-02-11T00:32:49;69.50;;;43.03;;
36585;SDS011;22591;48.314;11.562;2023-02-11T00:35:15;74.47;;;40.77;;
36585;SDS011;22591;48.314;11.562;2023-02-11T00:37:41;82.40;;;44.43;;
36585;SDS011;22591;48.314;11.562;2023-02-11T00:40:07;70.80;;;42.77;;
36585;SDS011;22591;48.314;11.562;2023-02-11T00:42:32;71.97;;;43.23;;
36585;SDS011;22591;48.314;11.562;2023-02-11T00:44:59;77.07;;;42.53;;
36585;SDS011;22591;48.314;11.562;2023-02-11T00:47:25;70.70;;;42.23;;
36585;SDS011;22591;48.314;11.562;2023-02-11T00:49:51;69.13;;;42.80;;
36585;SDS011;22591;48.314;11.562;2023-02-11T00:52:16;74.87;;;41.97;;
36585;SDS011;22591;48.314;11.562;2023-02-11T00:54:42;78.53;;;43.37;;
36585;SDS011;22591;48.314;11.562;2023-02-11T00:57:07;75.47;;;41.20;;
36585;SDS011;22591;48.314;11.562;2023-02-11T00:59:33;71.90;;;42.80;;
36585;SDS011;22591;48.314;11.562;2023-02-11T01:01:59;65.03;;;38.70;;
36585;SDS011;22591;48.314;11.562;2023-02-11T01:04:24;72.07;;;39.47;;
36585;SDS011;22591;48.314;11.562;2023-02-11T01:06:50;72.63;;;40.67;;
36585;SDS011;22591;48.314;11.562;2023-02-11T01:09:15;63.07;;;37.30;;
36585;SDS011;22591;48.314;11.562;2023-02-11T01:11:41;64.67;;;36.73;;
36585;SDS011;22591;48.314;11.562;2023-02-11T01:14:07;70.77;;;38.53;;
36585;SDS011;22591;48.314;11.562;2023-02-11T01:16:32;66.60;;;39.97;;
36585;SDS011;22591;48.314;11.562;2023-02-11T01:18:58;74.00;;;41.90;;
36585;SDS011;22591;48.314;11.562;2023-02-11T01:21:24;71.87;;;41.93;;
36585;SDS011;22591;48.314;11.562;2023-02-11T01:23:50;74.43;;;42.27;;
36585;SDS011;22591;48.314;11.562;2023-02-11T01:26:16;69.63;;;39.93;;
36585;SDS011;22591;48.314;11.562;2023-02-11T01:28:41;66.60;;;39.60;;
36585;SDS011;22591;48.314;11.562;2023-02-11T01:31:07;74.23;;;41.53;;
36585;SDS011;22591;48.314;11.562;2023-02-11T01:33:32;73.13;;;41.60;;
36585;SDS011;22591;48.314;11.562;2023-02-11T01:36:01;73.90;;;41.13;;
36585;SDS011;22591;48.314;11.562;2023-02-11T01:38:27;69.40;;;40.90;;
36585;SDS011;22591;48.314;11.562;2023-02-11T01:40:57;79.97;;;43.20;;
36585;SDS011;22591;48.314;11.562;2023-02-11T01:46:56;75.40;;;41.20;;
36585;SDS011;22591;48.314;11.562;2023-02-11T01:49:26;73.93;;;43.83;;
36585;SDS011;22591;48.314;11.562;2023-02-11T01:51:57;72.60;;;38.80;;
36585;SDS011;22591;48.314;11.562;2023-02-11T01:54:28;71.00;;;40.83;;
36585;SDS011;22591;48.314;11.562;2023-02-11T01:57:19;68.23;;;37.83;;
36585;SDS011;22591;48.314;11.562;2023-02-11T02:02:34;65.27;;;39.43;;
36585;SDS011;22591;48.314;11.562;2023-02-11T02:05:34;62.17;;;35.07;;
36585;SDS011;22591;48.314;11.562;2023-02-11T02:11:00;64.37;;;37.47;;
36585;SDS011;22591;48.314;11.562;2023-02-11T02:13:27;62.90;;;38.63;;
36585;SDS011;22591;48.314;11.562;2023-02-11T02:15:57;66.57;;;38.43;;
36585;SDS011;22591;48.314;11.562;2023-02-11T02:35:28;60.07;;;36.17;;
36585;SDS011;22591;48.314;11.562;2023-02-11T02:38:24;61.00;;;34.13;;
36585;SDS011;22591;48.314;11.562;2023-02-11T02:43:20;55.77;;;33.47;;
36585;SDS011;22591;48.314;11.562;2023-02-11T02:45:47;58.40;;;34.37;;
36585;SDS011;22591;48.314;11.562;2023-02-11T02:48:31;60.80;;;34.07;;
36585;SDS011;22591;48.314;11.562;2023-02-11T02:51:37;55.87;;;31.77;;
36585;SDS011;22591;48.314;11.562;2023-02-11T02:59:58;41.23;;;26.57;;
36585;SDS011;22591;48.314;11.562;2023-02-11T03:02:49;39.67;;;24.33;;
36585;SDS011;22591;48.314;11.562;2023-02-11T03:10:27;38.73;;;23.43;;
36585;SDS011;22591;48.314;11.562;2023-02-11T03:13:00;35.67;;;23.50;;
36585;SDS011;22591;48.314;11.562;2023-02-11T03:15:27;39.00;;;22.63;;
36585;SDS011;22591;48.314;11.562;2023-02-11T03:17:57;33.87;;;22.70;;
36585;SDS011;22591;48.314;11.562;2023-02-11T03:20:25;37.10;;;23.30;;
36585;SDS011;22591;48.314;11.562;2023-02-11T03:23:03;40.97;;;23.93;;
36585;SDS011;22591;48.314;11.562;2023-02-11T03:25:46;39.80;;;23.53;;
36585;SDS011;22591;48.314;11.562;2023-02-11T03:28:29;35.13;;;22.70;;
36585;SDS011;22591;48.314;11.562;2023-02-11T03:33:51;37.03;;;22.23;;
36585;SDS011;22591;48.314;11.562;2023-02-11T03:36:25;35.43;;;22.90;;
36585;SDS011;22591;48.314;11.562;2023-02-11T03:39:13;36.73;;;22.77;;
36585;SDS011;22591;48.314;11.562;2023-02-11T03:41:43;34.93;;;22.23;;
36585;SDS011;22591;48.314;11.562;2023-02-11T03:44:12;38.03;;;23.30;;
36585;SDS011;22591;48.314;11.562;2023-02-11T03:46:39;36.50;;;23.53;;
36585;SDS011;22591;48.314;11.562;2023-02-11T03:49:10;40.20;;;24.87;;
36585;SDS011;22591;48.314;11.562;2023-02-11T03:51:37;40.53;;;25.33;;
36585;SDS011;22591;48.314;11.562;2023-02-11T03:54:04;37.73;;;23.90;;
36585;SDS011;22591;48.314;11.562;2023-02-11T03:56:36;40.43;;;24.63;;
36585;SDS011;22591;48.314;11.562;2023-02-11T03:59:07;37.40;;;24.80;;
36585;SDS011;22591;48.314;11.562;2023-02-11T04:01:33;38.90;;;24.23;;
36585;SDS011;22591;48.314;11.562;2023-02-11T04:03:58;37.67;;;24.30;;
36585;SDS011;22591;48.314;11.562;2023-02-11T04:06:24;38.87;;;24.70;;
36585;SDS011;22591;48.314;11.562;2023-02-11T04:08:50;39.97;;;24.77;;
36585;SDS011;22591;48.314;11.562;2023-02-11T04:11:15;41.03;;;25.27;;
36585;SDS011;22591;48.314;11.562;2023-02-11T04:13:41;37.67;;;22.53;;
36585;SDS011;22591;48.314;11.562;2023-02-11T04:16:06;37.43;;;22.63;;
36585;SDS011;22591;48.314;11.562;2023-02-11T04:18:32;40.23;;;24.47;;
36585;SDS011;22591;48.314;11.562;2023-02-11T04:20:57;39.70;;;24.20;;
36585;SDS011;22591;48.314;11.562;2023-02-11T04:23:23;38.13;;;25.00;;
36585;SDS011;22591;48.314;11.562;2023-02-11T04:25:48;38.63;;;24.40;;
36585;SDS011;22591;48.314;11.562;2023-02-11T04:28:14;38.70;;;25.53;;
36585;SDS011;22591;48.314;11.562;2023-02-11T04:30:40;40.47;;;23.43;;
36585;SDS011;22591;48.314;11.562;2023-02-11T04:33:05;41.73;;;26.80;;
36585;SDS011;22591;48.314;11.562;2023-02-11T04:35:31;42.10;;;26.63;;
36585;SDS011;22591;48.314;11.562;2023-02-11T04:37:56;42.90;;;28.50;;
36585;SDS011;22591;48.314;11.562;2023-02-11T04:40:22;43.80;;;28.40;;
36585;SDS011;22591;48.314;11.562;2023-02-11T04:42:47;50.10;;;30.77;;
36585;SDS011;22591;48.314;11.562;2023-02-11T04:45:13;44.03;;;29.70;;
36585;SDS011;22591;48.314;11.562;2023-02-11T04:47:38;43.67;;;28.67;;
36585;SDS011;22591;48.314;11.562;2023-02-11T04:50:04;51.93;;;30.40;;
36585;SDS011;22591;48.314;11.562;2023-02-11T04:52:30;43.63;;;29.03;;
36585;SDS011;22591;48.314;11.562;2023-02-11T04:54:55;43.37;;;28.47;;
36585;SDS011;22591;48.314;11.562;2023-02-11T04:57:21;42.37;;;27.83;;
36585;SDS011;22591;48.314;11.562;2023-02-11T04:59:46;41.90;;;26.97;;
36585;SDS011;22591;48.314;11.562;2023-02-11T05:02:12;38.73;;;26.93;;
36585;SDS011;22591;48.314;11.562;2023-02-11T05:04:38;39.83;;;26.33;;
36585;SDS011;22591;48.314;11.562;2023-02-11T05:07:04;43.57;;;27.13;;
36585;SDS011;22591;48.314;11.562;2023-02-11T05:09:29;40.40;;;24.63;;
36585;SDS011;22591;48.314;11.562;2023-02-11T05:11:55;40.50;;;25.93;;
36585;SDS011;22591;48.314;11.562;2023-02-11T05:14:20;38.97;;;24.40;;
36585;SDS011;22591;48.314;11.562;2023-02-11T05:16:46;35.20;;;23.03;;
36585;SDS011;22591;48.314;11.562;2023-02-11T05:19:11;34.43;;;22.47;;
36585;SDS011;22591;48.314;11.562;2023-02-11T05:21:37;28.67;;;20.17;;
36585;SDS011;22591;48.314;11.562;2023-02-11T05:24:02;29.37;;;19.37;;
36585;SDS011;22591;48.314;11.562;2023-02-11T05:26:28;34.60;;;20.87;;
36585;SDS011;22591;48.314;11.562;2023-02-11T05:28:54;30.73;;;19.50;;
36585;SDS011;22591;48.314;11.562;2023-02-11T05:31:19;28.73;;;21.10;;
36585;SDS011;22591;48.314;11.562;2023-02-11T05:33:48;34.60;;;21.83;;
36585;SDS011;22591;48.314;11.562;2023-02-11T05:36:13;32.73;;;21.87;;
36585;SDS011;22591;48.314;11.562;2023-02-11T05:38:40;32.50;;;22.93;;
36585;SDS011;22591;48.314;11.562;2023-02-11T05:41:07;32.57;;;19.23;;
36585;SDS011;22591;48.314;11.562;2023-02-11T05:43:33;26.42;;;19.60;;
36585;SDS011;22591;48.314;11.562;2023-02-11T05:45:59;32.57;;;20.27;;
36585;SDS011;22591;48.314;11.562;2023-02-11T05:48:25;34.70;;;20.30;;
36585;SDS011;22591;48.314;11.562;2023-02-11T05:50:50;27.35;;;19.02;;
36585;SDS011;22591;48.314;11.562;2023-02-11T05:53:16;28.70;;;19.08;;
36585;SDS011;22591;48.314;11.562;2023-02-11T05:55:41;27.00;;;18.57;;
36585;SDS011;22591;48.314;11.562;2023-02-11T05:58:07;26.85;;;18.58;;
36585;SDS011;22591;48.314;11.562;2023-02-11T06:00:33;27.80;;;17.90;;
36585;SDS011;22591;48.314;11.562;2023-02-11T06:02:59;26.30;;;17.95;;
36585;SDS011;22591;48.314;11.562;2023-02-11T06:05:25;30.97;;;19.10;;
36585;SDS011;22591;48.314;11.562;2023-02-11T06:07:50;31.00;;;20.67;;
36585;SDS011;22591;48.314;11.562;2023-02-11T06:10:16;28.13;;;19.05;;
36585;SDS011;22591;48.314;11.562;2023-02-11T06:12:42;30.42;;;20.05;;
36585;SDS011;22591;48.314;11.562;2023-02-11T06:15:08;30.80;;;20.90;;
36585;SDS011;22591;48.314;11.562;2023-02-11T06:17:34;40.65;;;23.77;;
36585;SDS011;22591;48.314;11.562;2023-02-11T06:20:00;30.95;;;19.60;;
36585;SDS011;22591;48.314;11.562;2023-02-11T06:22:27;28.88;;;19.88;;
36585;SDS011;22591;48.314;11.562;2023-02-11T06:24:52;30.35;;;19.08;;
36585;SDS011;22591;48.314;11.562;2023-02-11T06:27:18;31.27;;;19.85;;
36585;SDS011;22591;48.314;11.562;2023-02-11T06:29:44;30.00;;;20.27;;
36585;SDS011;22591;48.314;11.562;2023-02-11T06:32:11;31.40;;;18.20;;
36585;SDS011;22591;48.314;11.562;2023-02-11T06:34:37;27.38;;;18.48;;
36585;SDS011;22591;48.314;11.562;2023-02-11T06:37:03;27.98;;;18.13;;
36585;SDS011;22591;48.314;11.562;2023-02-11T06:39:29;23.90;;;17.15;;
36585;SDS011;22591;48.314;11.562;2023-02-11T06:41:54;24.70;;;17.13;;
36585;SDS011;22591;48.314;11.562;2023-02-11T06:44:20;23.70;;;17.38;;
36585;SDS011;22591;48.314;11.562;2023-02-11T06:46:45;23.40;;;16.13;;
36585;SDS011;22591;48.314;11.562;2023-02-11T06:49:11;23.60;;;17.20;;
36585;SDS011;22591;48.314;11.562;2023-02-11T06:51:37;25.10;;;16.92;;
36585;SDS011;22591;48.314;11.562;2023-02-11T06:54:03;23.88;;;17.50;;
36585;SDS011;22591;48.314;11.562;2023-02-11T06:56:29;26.90;;;17.23;;
36585;SDS011;22591;48.314;11.562;2023-02-11T06:58:55;21.95;;;16.85;;
36585;SDS011;22591;48.314;11.562;2023-02-11T07:01:21;25.48;;;16.33;;
36585;SDS011;22591;48.314;11.562;2023-02-11T07:03:47;25.73;;;16.00;;
36585;SDS011;22591;48.314;11.562;2023-02-11T07:06:15;22.45;;;15.43;;
36585;SDS011;22591;48.314;11.562;2023-02-11T07:08:43;21.05;;;14.70;;
36585;SDS011;22591;48.314;11.562;2023-02-11T07:11:14;20.23;;;14.55;;
36585;SDS011;22591;48.314;11.562;2023-02-11T07:13:43;19.70;;;15.18;;
36585;SDS011;22591;48.314;11.562;2023-02-11T07:16:11;20.90;;;14.50;;
36585;SDS011;22591;48.314;11.562;2023-02-11T07:18:39;20.83;;;14.20;;
36585;SDS011;22591;48.314;11.562;2023-02-11T07:21:05;19.98;;;14.38;;
36585;SDS011;22591;48.314;11.562;2023-02-11T07:23:32;21.95;;;15.70;;
36585;SDS011;22591;48.314;11.562;2023-02-11T07:26:09;18.23;;;14.98;;
36585;SDS011;22591;48.314;11.562;2023-02-11T07:28:36;20.88;;;14.95;;
36585;SDS011;22591;48.314;11.562;2023-02-11T07:31:06;17.67;;;14.75;;
36585;SDS011;22591;48.314;11.562;2023-02-11T07:33:33;19.90;;;14.38;;
36585;SDS011;22591;48.314;11.562;2023-02-11T07:36:00;21.98;;;14.57;;
36585;SDS011;22591;48.314;11.562;2023-02-11T07:38:26;19.23;;;13.95;;
36585;SDS011;22591;48.314;11.562;2023-02-11T07:40:52;16.98;;;13.13;;
36585;SDS011;22591;48.314;11.562;2023-02-11T07:43:18;17.77;;;13.75;;
36585;SDS011;22591;48.314;11.562;2023-02-11T07:45:43;16.55;;;13.68;;
36585;SDS011;22591;48.314;11.562;2023-02-11T07:48:09;15.73;;;13.02;;
36585;SDS011;22591;48.314;11.562;2023-02-11T07:50:34;20.20;;;13.07;;
36585;SDS011;22591;48.314;11.562;2023-02-11T07:53:00;18.63;;;13.95;;
36585;SDS011;22591;48.314;11.562;2023-02-11T07:55:26;17.00;;;12.40;;
36585;SDS011;22591;48.314;11.562;2023-02-11T07:57:52;20.95;;;13.85;;
36585;SDS011;22591;48.314;11.562;2023-02-11T08:00:17;20.73;;;14.45;;
36585;SDS011;22591;48.314;11.562;2023-02-11T08:02:43;15.13;;;12.35;;
36585;SDS011;22591;48.314;11.562;2023-02-11T08:05:08;15.23;;;12.18;;
36585;SDS011;22591;48.314;11.562;2023-02-11T08:07:35;14.40;;;11.65;;
36585;SDS011;22591;48.314;11.562;2023-02-11T08:10:00;14.85;;;11.48;;
36585;SDS011;22591;48.314;11.562;2023-02-11T08:12:26;17.52;;;11.82;;
36585;SDS011;22591;48.314;11.562;2023-02-11T08:14:51;16.98;;;12.10;;
36585;SDS011;22591;48.314;11.562;2023-02-11T08:17:17;23.80;;;14.38;;
36585;SDS011;22591;48.314;11.562;2023-02-11T08:19:42;21.80;;;13.40;;
36585;SDS011;22591;48.314;11.562;2023-02-11T08:22:08;20.20;;;11.82;;
36585;SDS011;22591;48.314;11.562;2023-02-11T08:24:34;16.90;;;13.13;;
36585;SDS011;22591;48.314;11.562;2023-02-11T08:26:59;16.23;;;12.20;;
36585;SDS011;22591;48.314;11.562;2023-02-11T08:29:25;21.10;;;15.25;;
36585;SDS011;22591;48.314;11.562;2023-02-11T08:31:50;19.23;;;13.75;;
36585;SDS011;22591;48.314;11.562;2023-02-11T08:34:16;23.42;;;13.90;;
36585;SDS011;22591;48.314;11.562;2023-02-11T08:36:45;19.52;;;13.05;;
36585;SDS011;22591;48.314;11.562;2023-02-11T08:39:12;17.65;;;12.07;;
36585;SDS011;22591;48.314;11.562;2023-02-11T08:41:44;17.70;;;13.52;;
36585;SDS011;22591;48.314;11.562;2023-02-11T08:44:10;16.98;;;13.23;;
36585;SDS011;22591;48.314;11.562;2023-02-11T08:46:36;19.90;;;14.02;;
36585;SDS011;22591;48.314;11.562;2023-02-11T08:49:02;17.42;;;12.43;;
36585;SDS011;22591;48.314;11.562;2023-02-11T08:51:28;17.35;;;11.68;;
36585;SDS011;22591;48.314;11.562;2023-02-11T08:53:57;15.93;;;11.48;;
36585;SDS011;22591;48.314;11.562;2023-02-11T08:56:23;13.38;;;11.38;;
36585;SDS011;22591;48.314;11.562;2023-02-11T08:58:49;14.98;;;11.93;;
36585;SDS011;22591;48.314;11.562;2023-02-11T09:01:17;17.27;;;11.85;;
36585;SDS011;22591;48.314;11.562;2023-02-11T09:03:44;15.77;;;11.65;;
36585;SDS011;22591;48.314;11.562;2023-02-11T09:06:11;14.82;;;12.05;;
36585;SDS011;22591;48.314;11.562;2023-02-11T09:08:39;15.05;;;12.07;;
36585;SDS011;22591;48.314;11.562;2023-02-11T09:11:07;14.52;;;10.85;;
36585;SDS011;22591;48.314;11.562;2023-02-11T09:13:34;14.05;;;11.32;;
36585;SDS011;22591;48.314;11.562;2023-02-11T09:16:01;18.48;;;11.70;;
36585;SDS011;22591;48.314;11.562;2023-02-11T09:18:28;22.45;;;12.63;;
36585;SDS011;22591;48.314;11.562;2023-02-11T09:21:04;18.20;;;12.35;;
36585;SDS011;22591;48.314;11.562;2023-02-11T09:23:31;17.48;;;11.57;;
36585;SDS011;22591;48.314;11.562;2023-02-11T09:25:58;15.13;;;12.18;;
36585;SDS011;22591;48.314;11.562;2023-02-11T09:28:31;13.38;;;11.82;;
36585;SDS011;22591;48.314;11.562;2023-02-11T09:30:56;14.07;;;12.00;;
36585;SDS011;22591;48.314;11.562;2023-02-11T09:33:22;15.85;;;12.52;;
36585;SDS011;22591;48.314;11.562;2023-02-11T09:35:47;17.65;;;12.88;;
36585;SDS011;22591;48.314;11.562;2023-02-11T09:38:13;15.73;;;12.82;;
36585;SDS011;22591;48.314;11.562;2023-02-11T09:40:42;20.85;;;13.35;;
36585;SDS011;22591;48.314;11.562;2023-02-11T09:43:26;17.17;;;12.60;;
36585;SDS011;22591;48.314;11.562;2023-02-11T09:45:59;14.75;;;12.82;;
36585;SDS011;22591;48.314;11.562;2023-02-11T09:48:25;15.93;;;12.30;;
36585;SDS011;22591;48.314;11.562;2023-02-11T09:50:56;17.75;;;14.25;;
36585;SDS011;22591;48.314;11.562;2023-02-11T09:53:28;16.52;;;14.15;;
36585;SDS011;22591;48.314;11.562;2023-02-11T09:58:25;16.98;;;13.25;;
36585;SDS011;22591;48.314;11.562;2023-02-11T10:03:54;20.08;;;13.82;;
36585;SDS011;22591;48.314;11.562;2023-02-11T10:09:14;16.83;;;13.52;;
36585;SDS011;22591;48.314;11.562;2023-02-11T10:12:09;17.58;;;12.85;;
36585;SDS011;22591;48.314;11.562;2023-02-11T10:14:47;16.15;;;12.68;;
36585;SDS011;22591;48.314;11.562;2023-02-11T10:22:48;21.73;;;14.30;;
36585;SDS011;22591;48.314;11.562;2023-02-11T10:25:24;18.25;;;13.68;;
36585;SDS011;22591;48.314;11.562;2023-02-11T10:28:00;21.83;;;14.77;;
36585;SDS011;22591;48.314;11.562;2023-02-11T10:31:26;19.45;;;13.90;;
36585;SDS011;22591;48.314;11.562;2023-02-11T10:33:32;18.35;;;13.85;;
36585;SDS011;22591;48.314;11.562;2023-02-11T10:36:19;23.10;;;14.55;;
36585;SDS011;22591;48.314;11.562;2023-02-11T10:38:48;18.70;;;14.52;;
36585;SDS011;22591;48.314;11.562;2023-02-11T10:41:19;23.42;;;14.40;;
36585;SDS011;22591;48.314;11.562;2023-02-11T10:43:52;18.83;;;14.55;;
36585;SDS011;22591;48.314;11.562;2023-02-11T10:46:19;21.58;;;14.43;;
36585;SDS011;22591;48.314;11.562;2023-02-11T10:48:51;21.42;;;14.27;;
36585;SDS011;22591;48.314;11.562;2023-02-11T10:51:19;20.00;;;15.10;;
36585;SDS011;22591;48.314;11.562;2023-02-11T10:56:29;25.95;;;15.98;;
36585;SDS011;22591;48.314;11.562;2023-02-11T11:01:43;23.42;;;16.30;;
36585;SDS011;22591;48.314;11.562;2023-02-11T11:07:11;24.13;;;16.58;;
36585;SDS011;22591;48.314;11.562;2023-02-11T11:09:43;22.08;;;15.68;;
36585;SDS011;22591;48.314;11.562;2023-02-11T11:12:25;21.00;;;15.75;;
36585;SDS011;22591;48.314;11.562;2023-02-11T11:14:59;22.80;;;16.33;;
36585;SDS011;22591;48.314;11.562;2023-02-11T11:17:34;27.13;;;16.42;;
36585;SDS011;22591;48.314;11.562;2023-02-11T11:23:19;23.27;;;16.38;;
36585;SDS011;22591;48.314;11.562;2023-02-11T11:26:02;21.95;;;17.05;;
36585;SDS011;22591;48.314;11.562;2023-02-11T11:28:32;23.17;;;17.90;;
36585;SDS011;22591;48.314;11.562;2023-02-11T11:31:02;32.05;;;18.00;;
36585;SDS011;22591;48.314;11.562;2023-02-11T11:33:33;22.17;;;16.63;;
36585;SDS011;22591;48.314;11.562;2023-02-11T11:36:04;24.35;;;18.17;;
36585;SDS011;22591;48.314;11.562;2023-02-11T11:38:34;24.90;;;17.58;;
36585;SDS011;22591;48.314;11.562;2023-02-11T11:41:11;26.98;;;18.98;;
36585;SDS011;22591;48.314;11.562;2023-02-11T11:43:53;24.67;;;17.67;;
36585;SDS011;22591;48.314;11.562;2023-02-11T11:46:27;27.42;;;17.83;;
36585;SDS011;22591;48.314;11.562;2023-02-11T11:48:58;23.25;;;16.58;;
36585;SDS011;22591;48.314;11.562;2023-02-11T11:57:39;28.48;;;17.95;;
36585;SDS011;22591;48.314;11.562;2023-02-11T12:00:08;27.13;;;18.70;;
36585;SDS011;22591;48.314;11.562;2023-02-11T12:05:25;26.92;;;17.30;;
36585;SDS011;22591;48.314;11.562;2023-02-11T12:11:05;22.70;;;16.35;;
36585;SDS011;22591;48.314;11.562;2023-02-11T12:13:48;23.58;;;17.10;;
36585;SDS011;22591;48.314;11.562;2023-02-11T12:17:10;28.77;;;18.23;;
36585;SDS011;22591;48.314;11.562;2023-02-11T12:19:44;23.35;;;18.17;;
36585;SDS011;22591;48.314;11.562;2023-02-11T12:24:58;25.83;;;16.65;;
36585;SDS011;22591;48.314;11.562;2023-02-11T12:30:06;23.23;;;17.15;;
36585;SDS011;22591;48.314;11.562;2023-02-11T12:41:36;24.02;;;17.27;;
36585;SDS011;22591;48.314;11.562;2023-02-11T12:44:29;24.35;;;18.38;;
36585;SDS011;22591;48.314;11.562;2023-02-11T12:47:20;23.83;;;16.50;;
36585;SDS011;22591;48.314;11.562;2023-02-11T12:55:37;23.25;;;15.95;;
36585;SDS011;22591;48.314;11.562;2023-02-11T12:58:07;21.13;;;16.00;;
36585;SDS011;22591;48.314;11.562;2023-02-11T13:01:17;25.35;;;17.33;;
36585;SDS011;22591;48.314;11.562;2023-02-11T13:03:47;23.15;;;16.00;;
36585;SDS011;22591;48.314;11.562;2023-02-11T13:06:26;22.30;;;16.38;;
36585;SDS011;22591;48.314;11.562;2023-02-11T13:08:58;23.75;;;15.73;;
36585;SDS011;22591;48.314;11.562;2023-02-11T13:11:39;24.15;;;17.17;;
36585;SDS011;22591;48.314;11.562;2023-02-11T13:14:11;27.48;;;18.00;;
36585;SDS011;22591;48.314;11.562;2023-02-11T13:24:13;21.25;;;16.75;;
36585;SDS011;22591;48.314;11.562;2023-02-11T13:26:52;25.67;;;17.25;;
36585;SDS011;22591;48.314;11.562;2023-02-11T13:29:25;25.70;;;17.15;;
36585;SDS011;22591;48.314;11.562;2023-02-11T13:32:20;26.65;;;18.23;;
36585;SDS011;22591;48.314;11.562;2023-02-11T13:37:22;23.70;;;17.67;;
36585;SDS011;22591;48.314;11.562;2023-02-11T13:39:56;24.88;;;18.92;;
36585;SDS011;22591;48.314;11.562;2023-02-11T13:42:52;23.45;;;17.40;;
36585;SDS011;22591;48.314;11.562;2023-02-11T13:47:58;25.73;;;17.00;;
36585;SDS011;22591;48.314;11.562;2023-02-11T13:50:26;25.10;;;17.33;;
36585;SDS011;22591;48.314;11.562;2023-02-11T13:52:56;25.45;;;16.38;;
36585;SDS011;22591;48.314;11.562;2023-02-11T13:55:24;24.92;;;16.90;;
36585;SDS011;22591;48.314;11.562;2023-02-11T13:58:14;24.73;;;16.92;;
36585;SDS011;22591;48.314;11.562;2023-02-11T14:00:47;33.72;;;17.23;;
36585;SDS011;22591;48.314;11.562;2023-02-11T14:06:23;19.38;;;14.80;;
36585;SDS011;22591;48.314;11.562;2023-02-11T14:09:33;26.42;;;17.25;;
36585;SDS011;22591;48.314;11.562;2023-02-11T14:15:16;23.02;;;15.93;;
36585;SDS011;22591;48.314;11.562;2023-02-11T14:17:43;21.10;;;14.75;;
36585;SDS011;22591;48.314;11.562;2023-02-11T14:22:58;22.15;;;15.63;;
36585;SDS011;22591;48.314;11.562;2023-02-11T14:25:24;20.90;;;16.90;;
36585;SDS011;22591;48.314;11.562;2023-02-11T14:28:00;19.92;;;15.00;;
36585;SDS011;22591;48.314;11.562;2023-02-11T14:30:44;22.17;;;14.73;;
36585;SDS011;22591;48.314;11.562;2023-02-11T14:36:42;18.38;;;13.68;;
36585;SDS011;22591;48.314;11.562;2023-02-11T14:39:17;19.77;;;13.43;;
36585;SDS011;22591;48.314;11.562;2023-02-11T14:41:49;15.10;;;11.43;;
36585;SDS011;22591;48.314;11.562;2023-02-11T14:44:16;17.10;;;12.13;;
36585;SDS011;22591;48.314;11.562;2023-02-11T14:46:47;14.07;;;11.60;;
36585;SDS011;22591;48.314;11.562;2023-02-11T14:51:44;12.38;;;11.07;;
36585;SDS011;22591;48.314;11.562;2023-02-11T14:56:46;15.50;;;12.57;;
36585;SDS011;22591;48.314;11.562;2023-02-11T14:59:56;15.02;;;11.95;;
36585;SDS011;22591;48.314;11.562;2023-02-11T15:02:24;16.77;;;13.25;;
36585;SDS011;22591;48.314;11.562;2023-02-11T15:04:53;19.58;;;13.68;;
36585;SDS011;22591;48.314;11.562;2023-02-11T15:07:19;21.27;;;14.77;;
36585;SDS011;22591;48.314;11.562;2023-02-11T15:09:47;19.02;;;13.73;;
36585;SDS011;22591;48.314;11.562;2023-02-11T15:12:19;15.00;;;12.02;;
36585;SDS011;22591;48.314;11.562;2023-02-11T15:14:49;14.77;;;12.15;;
36585;SDS011;22591;48.314;11.562;2023-02-11T15:17:27;15.20;;;13.15;;
36585;SDS011;22591;48.314;11.562;2023-02-11T15:19:55;13.27;;;11.75;;
36585;SDS011;22591;48.314;11.562;2023-02-11T15:22:28;13.05;;;11.60;;
36585;SDS011;22591;48.314;11.562;2023-02-11T15:27:38;17.33;;;13.38;;
36585;SDS011;22591;48.314;11.562;2023-02-11T15:30:27;16.85;;;12.77;;
36585;SDS011;22591;48.314;11.562;2023-02-11T15:32:57;17.15;;;13.27;;
36585;SDS011;22591;48.314;11.562;2023-02-11T15:35:42;15.57;;;12.50;;
36585;SDS011;22591;48.314;11.562;2023-02-11T15:38:09;21.73;;;15.45;;
36585;SDS011;22591;48.314;11.562;2023-02-11T15:40:36;19.40;;;15.30;;
36585;SDS011;22591;48.314;11.562;2023-02-11T15:43:09;18.75;;;14.45;;
36585;SDS011;22591;48.314;11.562;2023-02-11T15:45:38;20.38;;;16.25;;
36585;SDS011;22591;48.314;11.562;2023-02-11T15:51:04;16.70;;;14.52;;
36585;SDS011;22591;48.314;11.562;2023-02-11T15:53:38;20.95;;;15.00;;
36585;SDS011;22591;48.314;11.562;2023-02-11T15:56:17;17.80;;;14.20;;
36585;SDS011;22591;48.314;11.562;2023-02-11T15:58:46;19.08;;;13.98;;
36585;SDS011;22591;48.314;11.562;2023-02-11T16:01:15;17.17;;;15.30;;
36585;SDS011;22591;48.314;11.562;2023-02-11T16:03:41;20.58;;;14.88;;
36585;SDS011;22591;48.314;11.562;2023-02-11T16:06:18;21.27;;;15.57;;
36585;SDS011;22591;48.314;11.562;2023-02-11T16:11:31;18.35;;;15.02;;
36585;SDS011;22591;48.314;11.562;2023-02-11T16:14:15;30.85;;;19.08;;
36585;SDS011;22591;48.314;11.562;2023-02-11T16:16:55;24.00;;;17.95;;
36585;SDS011;22591;48.314;11.562;2023-02-11T16:19:25;22.95;;;15.35;;
36585;SDS011;22591;48.314;11.562;2023-02-11T16:21:52;25.13;;;16.52;;
36585;SDS011;22591;48.314;11.562;2023-02-11T16:24:20;22.13;;;15.15;;
36585;SDS011;22591;48.314;11.562;2023-02-11T16:26:49;17.45;;;14.48;;
36585;SDS011;22591;48.314;11.562;2023-02-11T16:29:24;23.05;;;16.63;;
36585;SDS011;22591;48.314;11.562;2023-02-11T16:31:52;19.05;;;14.75;;
36585;SDS011;22591;48.314;11.562;2023-02-11T16:34:28;19.20;;;15.23;;
36585;SDS011;22591;48.314;11.562;2023-02-11T16:36:54;22.80;;;15.77;;
36585;SDS011;22591;48.314;11.562;2023-02-11T16:39:19;24.17;;;17.02;;
36585;SDS011;22591;48.314;11.562;2023-02-11T16:41:46;23.85;;;17.60;;
36585;SDS011;22591;48.314;11.562;2023-02-11T16:44:14;28.58;;;21.45;;